Tokuyo Maru No.15 — JD2184 — position and weather

sailwx.info

Track history (hours):
 
Tides and Currents Weather Stations Pressure Air Temp Water Temp Dewpoint Dewpoint Depression Visibility Wind Speed Wind Dir Waves Ship Positions

Tokuyo Maru No.15

Last reported at 2016-Jun-24 08:33 UTC. Time now 2016-Jun-26 04:46 UTC.
Position N 35°13' E 139°46'.

Length 66 m; draft 4.5 m.

Type: Tanker. MMSI: 431402034.

Date/timePositionNaut miles runAvg speedWind from/ knotsBaromVisibWave heightAir tempDewpointWater temp
2016-Jun-24 08:33N 35°13' E 139°46'1111.1
2016-Jun-24 07:33N 35°24' E 139°43'18 3.2
2016-Jun-24 02:04N 35°31' E 140°02'1 2.6
2016-Jun-24 01:33N 35°31' E 140°01'5 5.1
2016-Jun-24 00:32N 35°29' E 139°55'0 0.0
2016-Jun-23 23:32N 35°29' E 139°55'2 2.4
2016-Jun-23 22:33N 35°28' E 139°53'1211.9
2016-Jun-23 21:34N 35°19' E 139°44'1111.0
2016-Jun-23 20:33N 35°08' E 139°45'  
2016-Jun-21 12:08N 35°02' E 139°30'1811.5
2016-Jun-21 10:33N 35°15' E 139°46'1111.1
2016-Jun-21 09:33N 35°26' E 139°45'1212.2
2016-Jun-21 08:32N 35°31' E 139°58'4 3.6
2016-Jun-21 07:33N 35°31' E 140°03'0 0.0
2016-Jun-21 04:32N 35°31' E 140°03'0 0.0
2016-Jun-21 03:32N 35°31' E 140°03'0 0.0
2016-Jun-21 02:29N 35°31' E 140°03'6 6.5
2016-Jun-21 01:31N 35°32' E 139°55'0 0.0
2016-Jun-21 00:31N 35°32' E 139°55'2 2.6
2016-Jun-20 23:33N 35°31' E 139°58'3 2.8
2016-Jun-20 22:30N 35°29' E 139°55'0 0.0
2016-Jun-20 21:33N 35°29' E 139°55'0 0.0
2016-Jun-20 20:33N 35°29' E 139°55'0 0.0
2016-Jun-20 19:33N 35°29' E 139°55'0 0.0
2016-Jun-20 18:33N 35°29' E 139°55'0 0.0
2016-Jun-20 17:27N 35°29' E 139°55'0 0.0
2016-Jun-20 16:30N 35°29' E 139°55'0 0.0
2016-Jun-20 15:33N 35°29' E 139°55'0 0.0
2016-Jun-20 14:33N 35°29' E 139°55'0 0.0
2016-Jun-20 13:33N 35°29' E 139°55'0 0.0
2016-Jun-20 12:24N 35°29' E 139°55'0 0.1
2016-Jun-20 11:33N 35°29' E 139°55'0 0.0
2016-Jun-20 10:30N 35°29' E 139°55'0 0.0
2016-Jun-20 09:32N 35°29' E 139°55'0 0.0
2016-Jun-20 08:33N 35°29' E 139°55'0 0.0
2016-Jun-20 07:33N 35°29' E 139°55'0 0.0
2016-Jun-20 06:33N 35°29' E 139°55'8 7.7
2016-Jun-20 05:34N 35°25' E 139°47'1211.9
2016-Jun-20 04:33N 35°13' E 139°47'24510.7
2016-Jun-19 05:32N 34°07' E 134°60'1413.3
2016-Jun-19 04:30N 34°21' E 134°60'1413.0
2016-Jun-19 03:27N 34°29' E 135°13'1111.9
2016-Jun-19 02:32N 34°33' E 135°25'0 0.0
2016-Jun-18 23:08N 34°33' E 135°25'4 6.7
2016-Jun-18 22:33N 34°33' E 135°21'1 1.3
2016-Jun-18 21:33N 34°32' E 135°19'0 0.0
2016-Jun-18 20:15N 34°32' E 135°19'0 0.1
2016-Jun-18 19:21N 34°32' E 135°19'0 0.1
2016-Jun-18 18:33N 34°32' E 135°19'0 0.0
2016-Jun-18 17:27N 34°32' E 135°19'0 0.0
2016-Jun-18 16:33N 34°32' E 135°19'0 0.0
2016-Jun-18 15:33N 34°32' E 135°19'0 0.0
2016-Jun-18 13:33N 34°32' E 135°19'0 0.1
2016-Jun-18 12:33N 34°32' E 135°19'0 0.0
2016-Jun-18 11:33N 34°32' E 135°19'0 0.0
2016-Jun-18 10:33N 34°32' E 135°19'0 0.0
2016-Jun-18 09:33N 34°32' E 135°19'0 0.1
2016-Jun-18 08:27N 34°32' E 135°19'0 0.0
2016-Jun-18 07:21N 34°32' E 135°19'0 0.1
2016-Jun-18 06:33N 34°32' E 135°19'0 0.0
2016-Jun-18 05:27N 34°32' E 135°19'0 0.0
2016-Jun-18 04:27N 34°32' E 135°19'0 0.0
2016-Jun-18 03:33N 34°32' E 135°19'0 0.0
2016-Jun-18 02:27N 34°32' E 135°19'0 0.1
2016-Jun-18 01:33N 34°32' E 135°19'0 0.0
2016-Jun-18 00:32N 34°32' E 135°19'0 0.1
2016-Jun-17 23:33N 34°32' E 135°19'0 0.0
2016-Jun-17 22:08N 34°32' E 135°19'0 0.0
2016-Jun-17 21:32N 34°32' E 135°19'10 9.8
2016-Jun-17 20:33N 34°27' E 135°09'1312.6
2016-Jun-17 19:32N 34°17' E 134°59'1212.5
2016-Jun-17 18:33N 34°05' E 135°01'  
Track history (hours):
 
Tides and Currents Weather Stations Pressure Air Temp Water Temp Dewpoint Dewpoint Depression Visibility Wind Speed Wind Dir Waves Ship Positions

Tokuyo Maru No.15

Last reported at 2016-Jun-24 08:33 UTC. Time now 2016-Jun-26 04:46 UTC.
Position N 35°13' E 139°46'.

Length 66 m; draft 4.5 m.

Type: Tanker. MMSI: 431402034.

Date/timePositionNaut miles runAvg speedWind from/ knotsBaromVisibWave heightAir tempDewpointWater temp
2016-Jun-24 08:33N 35°13' E 139°46'1111.1
2016-Jun-24 07:33N 35°24' E 139°43'18 3.2
2016-Jun-24 02:04N 35°31' E 140°02'1 2.6
2016-Jun-24 01:33N 35°31' E 140°01'5 5.1
2016-Jun-24 00:32N 35°29' E 139°55'0 0.0
2016-Jun-23 23:32N 35°29' E 139°55'2 2.4
2016-Jun-23 22:33N 35°28' E 139°53'1211.9
2016-Jun-23 21:34N 35°19' E 139°44'1111.0
2016-Jun-23 20:33N 35°08' E 139°45'  
2016-Jun-21 12:08N 35°02' E 139°30'1811.5
2016-Jun-21 10:33N 35°15' E 139°46'1111.1
2016-Jun-21 09:33N 35°26' E 139°45'1212.2
2016-Jun-21 08:32N 35°31' E 139°58'4 3.6
2016-Jun-21 07:33N 35°31' E 140°03'0 0.0
2016-Jun-21 04:32N 35°31' E 140°03'0 0.0
2016-Jun-21 03:32N 35°31' E 140°03'0 0.0
2016-Jun-21 02:29N 35°31' E 140°03'6 6.5
2016-Jun-21 01:31N 35°32' E 139°55'0 0.0
2016-Jun-21 00:31N 35°32' E 139°55'2 2.6
2016-Jun-20 23:33N 35°31' E 139°58'3 2.8
2016-Jun-20 22:30N 35°29' E 139°55'0 0.0
2016-Jun-20 21:33N 35°29' E 139°55'0 0.0
2016-Jun-20 20:33N 35°29' E 139°55'0 0.0
2016-Jun-20 19:33N 35°29' E 139°55'0 0.0
2016-Jun-20 18:33N 35°29' E 139°55'0 0.0
2016-Jun-20 17:27N 35°29' E 139°55'0 0.0
2016-Jun-20 16:30N 35°29' E 139°55'0 0.0
2016-Jun-20 15:33N 35°29' E 139°55'0 0.0
2016-Jun-20 14:33N 35°29' E 139°55'0 0.0
2016-Jun-20 13:33N 35°29' E 139°55'0 0.0
2016-Jun-20 12:24N 35°29' E 139°55'0 0.1
2016-Jun-20 11:33N 35°29' E 139°55'0 0.0
2016-Jun-20 10:30N 35°29' E 139°55'0 0.0
2016-Jun-20 09:32N 35°29' E 139°55'0 0.0
2016-Jun-20 08:33N 35°29' E 139°55'0 0.0
2016-Jun-20 07:33N 35°29' E 139°55'0 0.0
2016-Jun-20 06:33N 35°29' E 139°55'8 7.7
2016-Jun-20 05:34N 35°25' E 139°47'1211.9
2016-Jun-20 04:33N 35°13' E 139°47'24510.7
2016-Jun-19 05:32N 34°07' E 134°60'1413.3
2016-Jun-19 04:30N 34°21' E 134°60'1413.0
2016-Jun-19 03:27N 34°29' E 135°13'1111.9
2016-Jun-19 02:32N 34°33' E 135°25'0 0.0
2016-Jun-18 23:08N 34°33' E 135°25'4 6.7
2016-Jun-18 22:33N 34°33' E 135°21'1 1.3
2016-Jun-18 21:33N 34°32' E 135°19'0 0.0
2016-Jun-18 20:15N 34°32' E 135°19'0 0.1
2016-Jun-18 19:21N 34°32' E 135°19'0 0.1
2016-Jun-18 18:33N 34°32' E 135°19'0 0.0
2016-Jun-18 17:27N 34°32' E 135°19'0 0.0
2016-Jun-18 16:33N 34°32' E 135°19'0 0.0
2016-Jun-18 15:33N 34°32' E 135°19'0 0.0
2016-Jun-18 13:33N 34°32' E 135°19'0 0.1
2016-Jun-18 12:33N 34°32' E 135°19'0 0.0
2016-Jun-18 11:33N 34°32' E 135°19'0 0.0
2016-Jun-18 10:33N 34°32' E 135°19'0 0.0
2016-Jun-18 09:33N 34°32' E 135°19'0 0.1
2016-Jun-18 08:27N 34°32' E 135°19'0 0.0
2016-Jun-18 07:21N 34°32' E 135°19'0 0.1
2016-Jun-18 06:33N 34°32' E 135°19'0 0.0
2016-Jun-18 05:27N 34°32' E 135°19'0 0.0
2016-Jun-18 04:27N 34°32' E 135°19'0 0.0
2016-Jun-18 03:33N 34°32' E 135°19'0 0.0
2016-Jun-18 02:27N 34°32' E 135°19'0 0.1
2016-Jun-18 01:33N 34°32' E 135°19'0 0.0
2016-Jun-18 00:32N 34°32' E 135°19'0 0.1
2016-Jun-17 23:33N 34°32' E 135°19'0 0.0
2016-Jun-17 22:08N 34°32' E 135°19'0 0.0
2016-Jun-17 21:32N 34°32' E 135°19'10 9.8
2016-Jun-17 20:33N 34°27' E 135°09'1312.6
2016-Jun-17 19:32N 34°17' E 134°59'1212.5
2016-Jun-17 18:33N 34°05' E 135°01'  

Dump ship's entire track history